Terminal Aerodrome Forecast
Issued by NWS Sioux Falls, SD

Home | Current Version | Previous Version | Text Only | Print | Product List | Glossary Off
Versions: 1 2 3 4 5 6 7 8 9 10 11 12 13 14 15 16 17 18 19 20 21 22 23 24 25 26 27 28 29

000
FTUS43 KFSD 042325
TAFSUX
TAF
KSUX 042325Z 0500/0524 34016G22KT P6SM SKC
     FM050100 35010KT P6SM SKC
     FM050400 VRB04KT P6SM SKC
     FM051400 11006KT P6SM SKC
     FM051600 17009KT P6SM SKC
     FM052000 17012KT P6SM SCT200=

USA.gov is the U.S. government's official web portal to all federal, state and local government web resources and services.